createdAt,value
2023-05-04T00:02:24.282Z,12.21
2023-05-04T00:04:53.625Z,12.19
2023-05-04T00:07:20.464Z,12.25
2023-05-04T00:09:46.938Z,12.26
2023-05-04T00:12:13.424Z,12.18
2023-05-04T00:14:40.050Z,12.24
2023-05-04T00:17:07.843Z,12.45
2023-05-04T00:19:34.765Z,12.42
2023-05-04T00:22:01.608Z,12.28
2023-05-04T00:24:28.504Z,12.08
2023-05-04T00:26:55.083Z,12.00
2023-05-04T00:29:21.825Z,12.02
2023-05-04T00:31:48.325Z,11.95
2023-05-04T00:34:15.602Z,11.99
2023-05-04T00:36:42.738Z,12.00
2023-05-04T00:39:09.247Z,12.05
2023-05-04T00:41:35.768Z,12.03
2023-05-04T00:44:04.274Z,11.91
2023-05-04T00:46:31.478Z,11.88
2023-05-04T00:48:59.777Z,11.79
2023-05-04T00:51:27.152Z,11.90
2023-05-04T00:53:54.326Z,11.87
2023-05-04T00:56:23.581Z,11.71
2023-05-04T00:58:54.238Z,11.72
2023-05-04T01:01:22.378Z,11.78
2023-05-04T01:03:53.664Z,11.75
2023-05-04T01:06:32.566Z,11.86
2023-05-04T01:09:02.121Z,11.78
2023-05-04T01:11:39.763Z,11.67
2023-05-04T01:14:06.903Z,11.65
2023-05-04T01:16:33.375Z,11.57
2023-05-04T01:18:59.865Z,11.64
2023-05-04T01:21:28.754Z,11.56
2023-05-04T01:23:56.275Z,11.61
2023-05-04T01:26:32.109Z,11.45
2023-05-04T01:29:04.382Z,11.45
2023-05-04T01:31:31.587Z,11.37
2023-05-04T01:33:58.529Z,11.56
2023-05-04T01:36:26.174Z,11.52
2023-05-04T01:38:57.678Z,11.49
2023-05-04T01:41:24.208Z,11.19
2023-05-04T01:43:50.886Z,11.33
2023-05-04T01:46:17.439Z,11.31
2023-05-04T01:48:43.962Z,11.16
2023-05-04T01:51:10.471Z,11.19
2023-05-04T01:53:36.920Z,11.10
2023-05-04T01:56:03.539Z,10.94
2023-05-04T01:58:30.492Z,11.09
2023-05-04T02:00:59.273Z,11.09
2023-05-04T02:03:27.294Z,10.96
2023-05-04T02:05:53.837Z,10.85
2023-05-04T02:08:20.340Z,10.80
2023-05-04T02:10:47.627Z,10.84
2023-05-04T02:13:14.140Z,10.91
2023-05-04T02:15:40.790Z,11.30
2023-05-04T02:18:07.294Z,10.91
2023-05-04T02:20:33.969Z,10.51
2023-05-04T02:23:00.706Z,10.55
2023-05-04T02:25:27.223Z,10.73
2023-05-04T02:27:53.663Z,10.61
2023-05-04T02:30:20.434Z,10.48
2023-05-04T02:32:46.995Z,10.47
2023-05-04T02:35:15.026Z,10.48
2023-05-04T02:37:41.504Z,10.40
2023-05-04T02:40:08.480Z,10.26
2023-05-04T02:42:34.971Z,10.06
2023-05-04T02:45:01.435Z,10.17
2023-05-04T02:47:27.960Z,10.34
2023-05-04T02:49:54.406Z,10.19
2023-05-04T02:52:20.934Z,10.03
2023-05-04T02:54:47.440Z,9.86
2023-05-04T02:57:13.939Z,9.89
2023-05-04T02:59:40.380Z,9.94
2023-05-04T03:02:06.947Z,9.69
2023-05-04T03:04:33.546Z,9.54
2023-05-04T03:07:00.035Z,9.49
2023-05-04T03:09:26.484Z,9.60
2023-05-04T03:11:52.939Z,9.47
2023-05-04T03:14:19.438Z,9.53
2023-05-04T03:16:45.999Z,9.35
2023-05-04T03:19:12.533Z,9.31
2023-05-04T03:21:39.118Z,9.39
2023-05-04T03:24:05.776Z,9.33
2023-05-04T03:26:32.850Z,9.44
2023-05-04T03:28:59.359Z,9.47
2023-05-04T03:31:26.169Z,9.44
2023-05-04T03:33:53.649Z,9.32
2023-05-04T03:36:21.612Z,9.18
2023-05-04T03:38:48.789Z,9.11
2023-05-04T03:41:16.317Z,9.18
2023-05-04T03:43:42.836Z,9.16
2023-05-04T03:46:10.324Z,9.07
2023-05-04T03:48:36.877Z,9.06
2023-05-04T03:51:06.365Z,9.07
2023-05-04T03:53:35.615Z,9.07
2023-05-04T03:56:02.717Z,9.02
2023-05-04T03:58:30.224Z,9.02
2023-05-04T04:01:01.059Z,8.83
2023-05-04T04:03:27.950Z,9.03
2023-05-04T04:05:54.905Z,9.02
2023-05-04T04:08:21.444Z,8.94
2023-05-04T04:10:48.144Z,8.73
2023-05-04T04:13:14.705Z,8.98
2023-05-04T04:15:44.772Z,8.99
2023-05-04T04:18:11.542Z,9.10
2023-05-04T04:20:38.069Z,9.23
2023-05-04T04:23:04.490Z,9.30
2023-05-04T04:25:31.584Z,9.28
2023-05-04T04:27:58.045Z,9.28
2023-05-04T04:30:24.519Z,9.38
2023-05-04T04:32:51.161Z,9.49
2023-05-04T04:35:17.648Z,9.62
2023-05-04T04:37:44.265Z,9.62
2023-05-04T04:40:11.179Z,9.72
2023-05-04T04:42:37.633Z,9.78
2023-05-04T04:45:07.217Z,10.00
2023-05-04T04:47:34.009Z,10.18
2023-05-04T04:50:00.490Z,10.17
2023-05-04T04:52:26.970Z,10.17
2023-05-04T04:54:53.464Z,10.04
2023-05-04T04:57:20.090Z,10.21
2023-05-04T04:59:47.200Z,10.27
2023-05-04T05:02:13.711Z,10.48
2023-05-04T05:04:43.040Z,10.75
2023-05-04T05:07:10.435Z,10.97
2023-05-04T05:09:37.518Z,11.13
2023-05-04T05:12:04.668Z,11.31
2023-05-04T05:14:35.111Z,11.36
2023-05-04T05:17:04.010Z,11.57
2023-05-04T05:19:30.768Z,11.70
2023-05-04T05:21:57.425Z,11.97
2023-05-04T05:24:23.905Z,12.14
2023-05-04T05:29:45.749Z,12.00
2023-05-04T05:32:12.253Z,11.94
2023-05-04T05:34:39.077Z,12.11
2023-05-04T05:37:05.990Z,12.25
2023-05-04T05:39:32.454Z,12.50
2023-05-04T05:41:59.290Z,12.78
2023-05-04T05:44:25.798Z,12.62
2023-05-04T05:46:52.290Z,12.90
2023-05-04T05:49:18.769Z,12.72
2023-05-04T05:51:45.195Z,13.23
2023-05-04T05:54:12.129Z,13.19
2023-05-04T05:56:38.595Z,13.67
2023-05-04T05:59:05.180Z,13.74
2023-05-04T06:01:31.921Z,14.00
2023-05-04T06:03:58.652Z,13.50
2023-05-04T06:06:25.488Z,14.35
2023-05-04T06:08:52.228Z,14.70
2023-05-04T06:11:18.685Z,14.54
2023-05-04T06:13:45.212Z,14.76
2023-05-04T06:16:11.754Z,15.05
2023-05-04T06:18:38.246Z,15.36
2023-05-04T06:21:04.946Z,15.19
2023-05-04T06:23:31.679Z,15.71
2023-05-04T06:25:58.579Z,15.16
2023-05-04T06:28:25.172Z,14.75
2023-05-04T06:30:51.759Z,15.22
2023-05-04T06:33:18.281Z,15.72
2023-05-04T06:35:45.423Z,15.28
2023-05-04T06:38:12.103Z,15.33
2023-05-04T06:40:38.665Z,15.46
2023-05-04T06:43:05.369Z,15.98
2023-05-04T06:45:33.786Z,16.54
2023-05-04T06:48:00.394Z,17.31
2023-05-04T06:50:27.646Z,17.27
2023-05-04T06:53:01.921Z,17.70
2023-05-04T06:55:28.444Z,17.47
2023-05-04T06:57:54.885Z,17.50
2023-05-04T07:00:21.431Z,17.03
2023-05-04T07:02:47.932Z,17.27
2023-05-04T07:05:14.585Z,17.41
2023-05-04T07:07:41.152Z,17.71
2023-05-04T07:10:08.520Z,17.47
2023-05-04T07:12:35.088Z,17.78
2023-05-04T07:15:01.579Z,18.77
2023-05-04T07:17:28.130Z,18.53
2023-05-04T07:19:54.684Z,18.57
2023-05-04T07:22:21.213Z,18.36
2023-05-04T07:24:47.982Z,19.07
2023-05-04T07:27:14.549Z,17.62
2023-05-04T07:29:41.646Z,17.63
2023-05-04T07:32:08.213Z,18.56
2023-05-04T07:34:44.909Z,18.12
2023-05-04T07:37:12.221Z,18.55
2023-05-04T07:39:38.989Z,18.35
2023-05-04T07:42:06.204Z,18.61
2023-05-04T07:44:32.674Z,18.36
2023-05-04T07:46:59.517Z,18.88
2023-05-04T07:49:26.183Z,19.44
2023-05-04T07:51:52.817Z,20.59
2023-05-04T07:54:21.338Z,20.75
2023-05-04T07:56:49.027Z,20.12
2023-05-04T07:59:17.638Z,20.32
2023-05-04T08:01:46.616Z,21.08
2023-05-04T08:04:13.188Z,19.79
2023-05-04T08:06:40.260Z,20.45
2023-05-04T08:09:06.799Z,20.46
2023-05-04T08:11:34.730Z,20.12
2023-05-04T08:14:01.251Z,20.65
2023-05-04T08:16:29.315Z,21.42
2023-05-04T08:18:56.370Z,21.70
2023-05-04T08:21:22.977Z,22.11
2023-05-04T08:23:49.864Z,22.16
2023-05-04T08:26:16.304Z,21.99
2023-05-04T08:28:42.895Z,22.79
2023-05-04T08:31:09.465Z,22.73
2023-05-04T08:33:35.951Z,23.14
2023-05-04T08:36:03.432Z,22.29
2023-05-04T08:38:30.131Z,22.69
2023-05-04T08:40:57.534Z,23.17
2023-05-04T08:43:24.152Z,21.85
2023-05-04T08:45:51.163Z,22.80
2023-05-04T08:48:17.657Z,22.50
2023-05-04T08:50:44.351Z,20.68
2023-05-04T08:53:12.188Z,21.85
2023-05-04T08:55:39.473Z,22.53
2023-05-04T08:58:07.988Z,21.57
2023-05-04T09:00:34.622Z,21.53
2023-05-04T09:03:03.576Z,21.92
2023-05-04T09:05:30.420Z,20.39
2023-05-04T09:07:57.905Z,22.69
2023-05-04T09:10:26.896Z,21.01
2023-05-04T09:12:57.733Z,21.88
2023-05-04T09:15:24.515Z,22.89
2023-05-04T09:17:58.075Z,23.14
2023-05-04T09:20:25.930Z,23.45
2023-05-04T09:23:08.001Z,23.89
2023-05-04T09:25:35.070Z,23.17
2023-05-04T09:28:01.558Z,22.95
2023-05-04T09:30:28.016Z,23.35
2023-05-04T09:32:55.202Z,23.01
2023-05-04T09:35:33.586Z,23.24
2023-05-04T09:38:01.190Z,24.42
2023-05-04T09:40:32.597Z,24.17
2023-05-04T09:42:59.818Z,23.49
2023-05-04T09:45:26.359Z,22.75
2023-05-04T09:47:54.206Z,24.53
2023-05-04T09:50:26.634Z,23.18
2023-05-04T09:52:53.489Z,23.35
2023-05-04T09:55:20.429Z,23.60
2023-05-04T09:57:48.169Z,23.13
2023-05-04T10:00:18.618Z,23.84
2023-05-04T10:02:46.521Z,24.16
2023-05-04T10:05:14.987Z,24.54
2023-05-04T10:07:42.715Z,23.63
2023-05-04T10:10:10.214Z,23.56
2023-05-04T10:12:36.751Z,23.61
2023-05-04T10:15:06.009Z,24.95
2023-05-04T10:17:35.874Z,24.51
2023-05-04T10:20:17.568Z,25.35
2023-05-04T10:22:44.137Z,25.04
2023-05-04T10:25:14.474Z,25.81
2023-05-04T10:27:48.969Z,25.34
2023-05-04T10:30:16.648Z,24.71
2023-05-04T10:32:43.335Z,24.38
2023-05-04T10:35:10.441Z,25.17
2023-05-04T10:37:40.096Z,24.41
2023-05-04T10:40:08.185Z,25.38
2023-05-04T10:42:42.402Z,24.41
2023-05-04T10:45:09.668Z,24.71
2023-05-04T10:47:38.090Z,25.51
2023-05-04T10:50:06.435Z,24.93
2023-05-04T10:52:33.458Z,25.76
2023-05-04T10:55:01.304Z,26.41
2023-05-04T10:57:29.103Z,27.27
2023-05-04T10:59:57.216Z,27.39
2023-05-04T11:02:24.280Z,27.61
2023-05-04T11:05:01.067Z,26.97
2023-05-04T11:07:36.660Z,26.96
2023-05-04T11:10:04.408Z,26.81
2023-05-04T11:12:31.881Z,26.46
2023-05-04T11:15:08.199Z,25.85
2023-05-04T11:17:35.180Z,26.46
2023-05-04T11:20:01.818Z,26.14
2023-05-04T11:22:28.362Z,24.08
2023-05-04T11:24:56.251Z,24.66
2023-05-04T11:27:23.916Z,25.99
2023-05-04T11:29:54.201Z,26.20
2023-05-04T11:32:20.730Z,26.23
2023-05-04T11:34:47.256Z,26.13
2023-05-04T11:37:13.893Z,24.89
2023-05-04T11:39:40.461Z,23.57
2023-05-04T11:42:09.718Z,25.64
2023-05-04T11:44:37.125Z,25.82
2023-05-04T11:47:03.816Z,25.85
2023-05-04T11:49:31.161Z,26.23
2023-05-04T11:52:07.775Z,26.64
2023-05-04T11:54:34.319Z,27.53
2023-05-04T11:57:04.044Z,28.27
2023-05-04T11:59:30.879Z,28.57
2023-05-04T12:01:57.482Z,28.50
2023-05-04T12:04:24.719Z,27.42
2023-05-04T12:06:51.403Z,28.25
2023-05-04T12:09:17.925Z,27.06
2023-05-04T12:11:53.304Z,26.97
2023-05-04T12:14:20.747Z,25.18
2023-05-04T12:16:55.636Z,25.66
2023-05-04T12:19:22.244Z,24.46
2023-05-04T12:21:53.214Z,25.00
2023-05-04T12:24:21.767Z,25.97
2023-05-04T12:26:48.296Z,25.92
2023-05-04T12:29:14.941Z,24.44
2023-05-04T12:31:41.580Z,25.62
2023-05-04T12:34:08.172Z,25.90
2023-05-04T12:36:34.926Z,24.23
2023-05-04T12:39:01.901Z,23.89
2023-05-04T12:41:28.413Z,24.31
2023-05-04T12:43:54.956Z,24.06
2023-05-04T12:46:22.582Z,26.09
2023-05-04T12:48:49.441Z,25.90
2023-05-04T12:51:16.082Z,26.19
2023-05-04T12:53:43.668Z,26.36
2023-05-04T12:56:10.223Z,26.13
2023-05-04T12:58:36.755Z,25.97
2023-05-04T13:01:03.399Z,26.69
2023-05-04T13:03:29.993Z,25.90
2023-05-04T13:05:57.432Z,24.50
2023-05-04T13:08:23.928Z,23.93
2023-05-04T13:10:50.772Z,23.71
2023-05-04T13:13:18.124Z,23.36
2023-05-04T13:15:45.034Z,23.28
2023-05-04T13:18:12.656Z,24.44
2023-05-04T13:20:39.668Z,23.25
2023-05-04T13:23:06.184Z,23.31
2023-05-04T13:25:32.849Z,23.97
2023-05-04T13:27:59.282Z,24.27
2023-05-04T13:30:25.995Z,24.29
2023-05-04T13:32:52.570Z,23.15
2023-05-04T13:35:19.188Z,23.08
2023-05-04T13:37:45.744Z,24.05
2023-05-04T13:40:12.535Z,23.21
2023-05-04T13:42:39.387Z,23.91
2023-05-04T13:45:06.533Z,24.23
2023-05-04T13:47:33.946Z,24.27
2023-05-04T13:50:00.488Z,24.93
2023-05-04T13:52:27.128Z,25.51
2023-05-04T13:54:53.815Z,25.55
2023-05-04T13:57:20.363Z,25.17
2023-05-04T13:59:58.638Z,25.27
2023-05-04T14:02:37.129Z,26.00
2023-05-04T14:05:04.159Z,25.14
2023-05-04T14:07:30.862Z,24.10
2023-05-04T14:09:58.561Z,24.05
2023-05-04T14:12:24.987Z,24.13
2023-05-04T14:14:51.585Z,24.24
2023-05-04T14:17:18.301Z,24.99
2023-05-04T14:19:45.011Z,24.04
2023-05-04T14:22:11.507Z,23.00
2023-05-04T14:24:38.112Z,23.30
2023-05-04T14:27:04.540Z,23.41
2023-05-04T14:29:32.296Z,23.21
2023-05-04T14:31:58.903Z,23.30
2023-05-04T14:34:25.507Z,23.29
2023-05-04T14:36:53.097Z,23.66
2023-05-04T14:39:19.749Z,23.85
2023-05-04T14:41:46.258Z,23.17
2023-05-04T14:44:12.845Z,22.69
2023-05-04T14:46:39.317Z,23.76
2023-05-04T14:49:07.241Z,23.53
2023-05-04T14:51:33.878Z,24.36
2023-05-04T14:54:00.734Z,23.93
2023-05-04T14:56:27.419Z,23.80
2023-05-04T14:58:53.891Z,23.77
2023-05-04T15:01:20.713Z,23.12
2023-05-04T15:03:48.021Z,22.66
2023-05-04T15:06:14.606Z,22.77
2023-05-04T15:08:41.077Z,22.61
2023-05-04T15:11:07.538Z,22.15
2023-05-04T15:13:34.028Z,22.45
2023-05-04T15:16:00.572Z,22.32
2023-05-04T15:18:27.136Z,22.61
2023-05-04T15:20:53.640Z,22.43
2023-05-04T15:23:20.166Z,21.79
2023-05-04T15:25:46.750Z,21.98
2023-05-04T15:28:13.338Z,22.07
2023-05-04T15:30:40.567Z,22.23
2023-05-04T15:33:07.406Z,22.06
2023-05-04T15:35:35.352Z,21.74
2023-05-04T15:38:02.237Z,22.10
2023-05-04T15:40:28.945Z,21.40
2023-05-04T15:42:55.453Z,21.32
2023-05-04T15:45:22.281Z,21.79
2023-05-04T15:47:49.189Z,21.76
2023-05-04T15:50:15.795Z,21.49
2023-05-04T15:52:42.349Z,21.72
2023-05-04T15:55:23.695Z,22.20
2023-05-04T15:57:52.524Z,21.79
2023-05-04T16:00:19.353Z,21.35
2023-05-04T16:02:45.937Z,21.51
2023-05-04T16:05:12.533Z,21.49
2023-05-04T16:07:39.086Z,21.02
2023-05-04T16:10:06.263Z,21.69
2023-05-04T16:12:32.911Z,21.02
2023-05-04T16:14:59.418Z,21.02
2023-05-04T16:17:26.171Z,20.98
2023-05-04T16:19:52.737Z,20.79
2023-05-04T16:22:19.282Z,21.14
2023-05-04T16:24:46.602Z,21.15
2023-05-04T16:27:13.072Z,20.58
2023-05-04T16:29:39.523Z,20.54
2023-05-04T16:32:05.966Z,20.52
2023-05-04T16:34:32.657Z,20.43
2023-05-04T16:36:59.153Z,20.22
2023-05-04T16:39:34.109Z,20.37
2023-05-04T16:42:01.754Z,20.40
2023-05-04T16:44:29.501Z,20.19
2023-05-04T16:46:55.986Z,20.46
2023-05-04T16:49:22.502Z,20.02
2023-05-04T16:51:49.118Z,19.88
2023-05-04T16:54:16.157Z,20.00
2023-05-04T16:56:42.638Z,20.05
2023-05-04T16:59:09.148Z,20.07
2023-05-04T17:01:35.851Z,19.97
2023-05-04T17:04:02.469Z,19.79
2023-05-04T17:06:29.469Z,19.70
2023-05-04T17:08:55.977Z,19.63
2023-05-04T17:11:23.860Z,19.68
2023-05-04T17:13:51.054Z,19.55
2023-05-04T17:16:17.801Z,19.25
2023-05-04T17:18:45.705Z,19.14
2023-05-04T17:21:12.426Z,19.11
2023-05-04T17:23:39.025Z,19.11
2023-05-04T17:26:05.896Z,19.01
2023-05-04T17:28:32.441Z,18.92
2023-05-04T17:30:58.962Z,18.79
2023-05-04T17:33:25.490Z,18.66
2023-05-04T17:35:52.115Z,18.79
2023-05-04T17:38:18.612Z,18.56
2023-05-04T17:40:45.152Z,18.46
2023-05-04T17:43:11.587Z,18.44
2023-05-04T17:45:38.065Z,18.36
2023-05-04T17:48:04.705Z,18.24
2023-05-04T17:50:31.322Z,18.42
2023-05-04T17:52:57.867Z,18.34
2023-05-04T17:55:24.783Z,18.22
2023-05-04T17:57:52.440Z,18.19
2023-05-04T18:00:19.083Z,17.97
2023-05-04T18:02:45.604Z,17.86
2023-05-04T18:05:12.573Z,17.86
2023-05-04T18:07:39.628Z,17.72
2023-05-04T18:10:06.709Z,17.49
2023-05-04T18:12:34.891Z,17.61
2023-05-04T18:15:02.064Z,17.29
2023-05-04T18:17:29.387Z,17.26
2023-05-04T18:19:56.561Z,17.35
2023-05-04T18:22:23.016Z,17.07
2023-05-04T18:24:49.589Z,17.19
2023-05-04T18:27:16.373Z,17.18
2023-05-04T18:29:43.017Z,17.23
2023-05-04T18:32:10.746Z,16.82
2023-05-04T18:34:37.750Z,16.87
2023-05-04T18:37:04.230Z,16.59
2023-05-04T18:39:31.358Z,16.25
2023-05-04T18:41:59.275Z,16.16
2023-05-04T18:44:25.723Z,15.94
2023-05-04T18:46:52.336Z,15.96
2023-05-04T18:49:18.789Z,16.09
2023-05-04T18:51:45.492Z,16.09
2023-05-04T18:54:11.925Z,15.98
2023-05-04T18:56:38.377Z,15.83
2023-05-04T18:59:06.060Z,15.73
2023-05-04T19:01:32.935Z,15.68
2023-05-04T19:03:59.499Z,15.59
2023-05-04T19:06:26.016Z,15.75
2023-05-04T19:08:52.565Z,15.77
2023-05-04T19:11:19.053Z,15.68
2023-05-04T19:13:45.518Z,15.56
2023-05-04T19:16:12.496Z,15.38
2023-05-04T19:18:39.300Z,15.31
2023-05-04T19:21:06.349Z,15.22
2023-05-04T19:23:32.853Z,15.20
2023-05-04T19:25:59.318Z,15.16
2023-05-04T19:28:25.843Z,14.87
2023-05-04T19:30:53.967Z,14.67
2023-05-04T19:33:20.691Z,14.88
2023-05-04T19:35:47.588Z,14.79
2023-05-04T19:38:14.041Z,14.85
2023-05-04T19:40:42.714Z,14.79
2023-05-04T19:43:09.449Z,14.71
2023-05-04T19:45:36.145Z,14.71
2023-05-04T19:48:03.461Z,14.61
2023-05-04T19:50:30.200Z,14.59
2023-05-04T19:52:56.802Z,14.61
2023-05-04T19:55:23.319Z,14.39
2023-05-04T19:57:50.051Z,14.23
2023-05-04T20:00:19.255Z,14.18
2023-05-04T20:02:46.600Z,14.18
2023-05-04T20:05:13.685Z,14.06
2023-05-04T20:07:40.166Z,14.08
2023-05-04T20:10:07.082Z,14.12
2023-05-04T20:12:33.883Z,14.22
2023-05-04T20:15:00.440Z,14.01
2023-05-04T20:17:27.462Z,13.92
2023-05-04T20:19:53.993Z,13.88
2023-05-04T20:22:20.539Z,13.71
2023-05-04T20:24:47.055Z,13.84
2023-05-04T20:27:13.672Z,13.74
2023-05-04T20:29:40.152Z,13.50
2023-05-04T20:32:07.278Z,13.38
2023-05-04T20:34:33.969Z,13.47
2023-05-04T20:37:00.494Z,13.59
2023-05-04T20:39:26.953Z,13.49
2023-05-04T20:41:53.403Z,13.38
2023-05-04T20:44:19.843Z,13.40
2023-05-04T20:46:46.376Z,13.43
2023-05-04T20:49:13.375Z,13.37
2023-05-04T20:51:39.904Z,13.43
2023-05-04T20:54:06.362Z,13.44
2023-05-04T20:56:32.808Z,13.43
2023-05-04T20:58:59.337Z,13.38
2023-05-04T21:01:25.924Z,13.34
2023-05-04T21:03:52.593Z,13.28
2023-05-04T21:06:19.287Z,13.10
2023-05-04T21:08:45.780Z,13.04
2023-05-04T21:11:12.217Z,12.96
2023-05-04T21:13:38.652Z,12.87
2023-05-04T21:16:05.364Z,12.91
2023-05-04T21:18:31.913Z,12.73
2023-05-04T21:20:58.413Z,12.72
2023-05-04T21:23:25.093Z,12.72
2023-05-04T21:25:59.280Z,12.64
2023-05-04T21:28:25.884Z,12.72
2023-05-04T21:30:52.490Z,12.71
2023-05-04T21:33:18.939Z,12.69
2023-05-04T21:35:45.399Z,12.66
2023-05-04T21:38:12.801Z,12.41
2023-05-04T21:40:39.300Z,12.34
2023-05-04T21:43:05.854Z,12.41
2023-05-04T21:45:32.548Z,12.44
2023-05-04T21:47:59.151Z,12.45
2023-05-04T21:50:26.321Z,12.34
2023-05-04T21:52:52.793Z,12.21
2023-05-04T21:55:19.656Z,12.14
2023-05-04T21:57:46.145Z,11.85
2023-05-04T22:00:14.791Z,11.95
2023-05-04T22:02:41.356Z,12.07
2023-05-04T22:05:09.680Z,12.06
2023-05-04T22:07:36.707Z,11.97
2023-05-04T22:10:04.489Z,12.01
2023-05-04T22:12:30.974Z,11.83
2023-05-04T22:14:57.602Z,11.82
2023-05-04T22:17:24.053Z,11.40
2023-05-04T22:19:50.579Z,11.62
2023-05-04T22:22:17.041Z,11.69
2023-05-04T22:24:43.564Z,11.77
2023-05-04T22:27:10.148Z,11.74
2023-05-04T22:29:36.691Z,11.78
2023-05-04T22:32:03.201Z,11.71
2023-05-04T22:34:29.670Z,11.60
2023-05-04T22:36:56.149Z,11.92
2023-05-04T22:39:22.798Z,11.82
2023-05-04T22:41:49.256Z,11.71
2023-05-04T22:44:15.877Z,11.69
2023-05-04T22:46:42.431Z,11.47
2023-05-04T22:49:09.005Z,11.36
2023-05-04T22:51:35.546Z,11.38
2023-05-04T22:54:02.002Z,11.52
2023-05-04T22:56:28.565Z,11.38
2023-05-04T22:58:55.009Z,11.27
2023-05-04T23:01:21.945Z,11.32
2023-05-04T23:03:49.057Z,11.39
2023-05-04T23:06:15.731Z,11.29
2023-05-04T23:08:42.341Z,11.14
2023-05-04T23:11:08.818Z,11.19
2023-05-04T23:13:35.599Z,11.26
2023-05-04T23:16:03.604Z,11.18
2023-05-04T23:18:32.989Z,10.98
2023-05-04T23:20:59.574Z,11.10
2023-05-04T23:23:25.982Z,11.18
2023-05-04T23:25:52.448Z,11.22
2023-05-04T23:28:18.925Z,11.22
2023-05-04T23:30:45.406Z,11.18
2023-05-04T23:33:11.893Z,11.20
2023-05-04T23:35:38.422Z,11.08
2023-05-04T23:38:04.925Z,11.08
2023-05-04T23:40:31.599Z,10.99
2023-05-04T23:42:58.028Z,10.87
2023-05-04T23:45:24.516Z,10.96
2023-05-04T23:47:51.055Z,11.02
2023-05-04T23:50:18.030Z,10.97
2023-05-04T23:52:44.714Z,10.87
2023-05-04T23:55:11.211Z,10.75
2023-05-04T23:57:37.683Z,10.90
